Nossa Senhora da Gloria, Brazil
Current Conditions -  °F | °C
As of 6:00 AM on Saturday 22 Nov 2014 (Local Time) from SBAR Reporting Station
Light Rain Light Rain  
Wind Chill: 73°   Ceiling: 1500
Heat Index: 73°   Visibility: 2.5mi
Dew Point: 73°   Wind: 0mph
Humidity: 100%   Direction: NA
Pressure: NA   Gusts: NA
Location:  10.22°S, 37.42°W
Report Text: SBAR 220900Z 00000KT 4000 -RA BKN015 FEW017TCU BKN070 23/23 Q1013
Loading
Personal Weather Stations






























Interactive Weather Map New forecast layout! Learn more

10-Day Weather Forecast

Advertisements
Track Severe Weather on mobile